Terminal Aerodrome Forecast
Issued by NWS Duluth, MN

Home | Current Version | Previous Version | Text Only | Print | Product List | Glossary On
Versions: 1 2 3 4 5 6 7 8 9 10 11 12 13 14 15 16 17 18 19
000
FTUS43 KDLH 260121 AAA
TAFINL
TAF AMD
KINL 260121Z 2601/2624 23005KT P6SM -SN BKN019 OVC029
      TEMPO 2601/2603 1SM -SN BKN020
     FM260300 29006KT P6SM VCSH BKN035
     FM260700 VRB03KT P6SM VCSH BKN025
     FM261400 32005KT P6SM BKN040=

USA.gov is the U.S. government's official web portal to all federal, state and local government web resources and services.